Porto Franco, Brazil
Current Conditions -  °F | °C
As of 4:00 PM on Sunday 21 Dec 2014 (Local Time) from SBIZ Reporting Station
Scattered Clouds Scattered Clouds  
Wind Chill: 91°   Ceiling: Unl
Heat Index: 105°   Visibility: 6mi
Dew Point: 77°   Wind: 6mph
Humidity: 63%   Direction: 140°SE
Pressure: 29.77"   Gusts: NA
Location:  6.34°S, 47.4°W
Report Text: SBIZ 211900Z 14005KT 9999 SCT020 33/25 Q1008
Loading
Personal Weather Stations






























Interactive Weather Map New forecast layout! Learn more

10-Day Weather Forecast

Advertisements
Track Severe Weather on mobile